Time;durP1;ratioP1;P1;durP2;ratioP2;P2;SDS_P1;SDS_P2;PMS_P1;PMS_P2;Temp;Humidity;BMP_temperature;BMP_pressure;BME280_temperature;BME280_humidity;BME280_pressure;Samples;Min_cycle;Max_cycle;Signal;HPM_P1;HPM_P2
2023/07/30 00:02:24;;;;;;;8.87;5.93;;;18.40;66.90;;;;;;5067280;28;20183;-66
2023/07/30 00:04:52;;;;;;;8.33;5.77;;;18.50;66.10;;;;;;5067415;28;20183;-66
2023/07/30 00:07:19;;;;;;;6.97;5.03;;;18.60;65.30;;;;;;5069905;28;20202;-66
2023/07/30 00:09:46;;;;;;;8.50;5.27;;;18.70;64.80;;;;;;5067809;28;20187;-66
2023/07/30 00:12:14;;;;;;;9.27;5.43;;;18.70;64.70;;;;;;5069647;28;20224;-65
2023/07/30 00:14:41;;;;;;;6.23;4.63;;;18.90;64.50;;;;;;5070960;28;20213;-66
2023/07/30 00:17:08;;;;;;;6.80;4.57;;;19.00;64.20;;;;;;5073137;28;20187;-65
2023/07/30 00:19:35;;;;;;;7.20;4.90;;;19.10;63.40;;;;;;5070039;28;20291;-66
2023/07/30 00:22:03;;;;;;;7.40;4.43;;;19.20;63.30;;;;;;5075715;28;20189;-66
2023/07/30 00:24:30;;;;;;;5.93;4.07;;;19.30;63.50;;;;;;5077187;28;20185;-65
2023/07/30 00:26:58;;;;;;;6.13;3.60;;;19.50;62.60;;;;;;5075700;28;20195;-66
2023/07/30 00:29:25;;;;;;;7.87;4.30;;;19.50;61.90;;;;;;5075084;28;20258;-66
2023/07/30 00:31:52;;;;;;;9.23;3.83;;;19.60;61.60;;;;;;5074864;28;20692;-66
2023/07/30 00:34:19;;;;;;;8.30;3.40;;;19.70;61.50;;;;;;5074581;28;20207;-65
2023/07/30 00:36:47;;;;;;;4.97;3.27;;;19.80;60.90;;;;;;5073523;28;20197;-66
2023/07/30 00:39:14;;;;;;;5.03;2.83;;;20.00;60.50;;;;;;5074708;28;20580;-65
2023/07/30 00:41:41;;;;;;;5.43;2.80;;;20.10;59.60;;;;;;5073940;28;20233;-67
2023/07/30 00:44:09;;;;;;;2.90;2.30;;;20.30;59.40;;;;;;5078041;28;20185;-66
2023/07/30 00:46:36;;;;;;;3.70;2.20;;;20.40;59.00;;;;;;5077006;28;20183;-64
2023/07/30 00:49:03;;;;;;;5.23;2.23;;;20.50;58.30;;;;;;5074234;28;20601;-64
2023/07/30 00:51:33;;;;;;;5.93;2.33;;;20.60;58.20;;;;;;5075430;28;20249;-64
2023/07/30 00:54:01;;;;;;;4.60;2.53;;;20.70;58.20;;;;;;5073811;28;20218;-66
2023/07/30 00:56:28;;;;;;;15.20;3.07;;;20.70;58.30;;;;;;5072462;28;20191;-64
2023/07/30 00:58:56;;;;;;;2.93;1.93;;;20.80;58.30;;;;;;5071032;28;20648;-63
2023/07/30 01:01:24;;;;;;;6.37;2.63;;;21.00;57.00;;;;;;5074058;28;20214;-64
2023/07/30 01:03:51;;;;;;;2.97;2.03;;;21.10;56.60;;;;;;5069904;28;20237;-64
2023/07/30 01:06:20;;;;;;;4.03;2.23;;;21.30;56.30;;;;;;5074468;28;20194;-64
2023/07/30 01:08:48;;;;;;;5.97;1.63;;;21.30;56.00;;;;;;5074664;28;20659;-65
2023/07/30 01:11:16;;;;;;;3.80;2.00;;;21.50;54.90;;;;;;5074532;28;20664;-64
2023/07/30 01:13:44;;;;;;;3.37;1.50;;;21.70;54.20;;;;;;5073055;28;20259;-64
2023/07/30 01:16:12;;;;;;;2.43;1.77;;;21.80;53.40;;;;;;5071374;28;20226;-64
2023/07/30 01:18:39;;;;;;;2.10;1.63;;;21.90;53.50;;;;;;5073490;28;20217;-64
2023/07/30 01:21:06;;;;;;;2.37;1.47;;;22.20;52.80;;;;;;5072285;28;20186;-64
2023/07/30 01:23:34;;;;;;;2.27;1.50;;;22.30;52.00;;;;;;5073451;28;20608;-64
2023/07/30 01:26:16;;;;;;;2.43;1.47;;;22.60;51.40;;;;;;5074251;28;20195;-64
2023/07/30 01:28:49;;;;;;;2.10;1.37;;;22.80;50.50;;;;;;5068323;28;20270;-64
2023/07/30 01:31:18;;;;;;;2.17;1.23;;;22.80;49.70;;;;;;5076510;28;20219;-64
2023/07/30 01:33:49;;;;;;;2.23;1.37;;;22.80;50.30;;;;;;5071831;28;20555;-64
2023/07/30 01:36:17;;;;;;;1.27;1.17;;;22.90;49.40;;;;;;5074840;28;20571;-64
2023/07/30 01:38:45;;;;;;;1.83;1.40;;;23.00;49.40;;;;;;5072093;28;20203;-65
2023/07/30 01:41:12;;;;;;;2.17;1.30;;;22.90;49.30;;;;;;5075536;28;20693;-64
2023/07/30 01:43:40;;;;;;;1.90;1.47;;;23.00;49.20;;;;;;5072594;28;20224;-64
2023/07/30 01:46:07;;;;;;;4.63;1.57;;;23.20;49.70;;;;;;5070480;28;20183;-65
2023/07/30 01:48:34;;;;;;;1.20;1.03;;;23.40;48.90;;;;;;5073070;28;20191;-65
2023/07/30 01:51:02;;;;;;;2.23;1.20;;;23.70;47.80;;;;;;5081649;28;20692;-64
2023/07/30 01:53:29;;;;;;;2.33;1.27;;;23.60;47.00;;;;;;5074587;28;20644;-64
2023/07/30 01:55:56;;;;;;;3.03;1.40;;;23.70;47.00;;;;;;5074451;28;20218;-64
2023/07/30 01:58:23;;;;;;;2.03;1.17;;;23.60;47.00;;;;;;5073767;28;20206;-65
2023/07/30 02:00:51;;;;;;;1.30;0.93;;;23.70;46.80;;;;;;5070524;28;20191;-65
2023/07/30 02:03:18;;;;;;;3.57;1.07;;;23.80;45.80;;;;;;5071214;28;20270;-64
2023/07/30 02:05:45;;;;;;;1.53;1.13;;;24.00;45.60;;;;;;5066316;28;20279;-64
2023/07/30 02:08:15;;;;;;;1.13;1.00;;;24.30;45.00;;;;;;5074852;28;20175;-65
2023/07/30 02:10:43;;;;;;;3.67;1.20;;;24.40;44.80;;;;;;5070339;28;20597;-65
2023/07/30 02:13:10;;;;;;;2.57;1.10;;;24.50;43.60;;;;;;5071418;28;20183;-65
2023/07/30 02:15:42;;;;;;;2.40;1.20;;;24.40;43.60;;;;;;5072286;28;20332;-64
2023/07/30 02:18:10;;;;;;;4.67;0.90;;;24.30;43.90;;;;;;5072632;28;20704;-65
2023/07/30 02:20:37;;;;;;;2.03;1.00;;;24.30;43.60;;;;;;5071588;28;20183;-63
2023/07/30 02:23:04;;;;;;;1.50;0.90;;;24.40;44.00;;;;;;5072355;28;20663;-65
2023/07/30 02:25:32;;;;;;;2.23;1.43;;;24.30;44.30;;;;;;5070916;28;20186;-65
2023/07/30 02:28:01;;;;;;;2.37;0.90;;;24.30;44.10;;;;;;5072622;28;20688;-64
2023/07/30 02:30:28;;;;;;;2.00;0.90;;;24.30;44.00;;;;;;5064801;28;20183;-65
2023/07/30 02:32:56;;;;;;;3.30;1.10;;;24.60;43.80;;;;;;5072929;28;20672;-67
2023/07/30 02:35:23;;;;;;;1.90;1.10;;;24.50;43.30;;;;;;5073020;28;20305;-66
2023/07/30 02:37:50;;;;;;;1.63;1.10;;;24.70;43.60;;;;;;5071426;28;20233;-66
2023/07/30 02:40:18;;;;;;;3.13;1.23;;;24.80;42.90;;;;;;5065280;28;20175;-65
2023/07/30 02:42:45;;;;;;;2.40;1.03;;;24.80;43.30;;;;;;5072722;28;20225;-66
2023/07/30 02:45:12;;;;;;;4.33;1.10;;;24.90;43.80;;;;;;5070185;28;20713;-67
2023/07/30 02:47:40;;;;;;;3.17;1.10;;;25.30;43.00;;;;;;5072802;28;20175;-66
2023/07/30 02:50:08;;;;;;;3.07;1.10;;;25.20;42.90;;;;;;5063712;28;20194;-67
2023/07/30 02:52:36;;;;;;;2.43;1.30;;;25.30;42.80;;;;;;5072948;28;20233;-66
2023/07/30 02:55:03;;;;;;;3.07;1.03;;;25.10;43.40;;;;;;5072271;28;20218;-67
2023/07/30 02:57:30;;;;;;;1.90;0.90;;;25.20;42.50;;;;;;5072743;28;20215;-66
2023/07/30 02:59:58;;;;;;;1.47;1.07;;;25.20;42.50;;;;;;5071039;28;20202;-66
2023/07/30 03:02:25;;;;;;;0.77;0.77;;;25.40;41.90;;;;;;5072142;28;20218;-66
2023/07/30 03:04:52;;;;;;;2.93;1.30;;;25.30;43.20;;;;;;5072404;28;20211;-66
2023/07/30 03:07:20;;;;;;;4.43;1.43;;;25.70;42.00;;;;;;5072200;28;20556;-66
2023/07/30 03:09:47;;;;;;;1.60;1.00;;;25.70;41.50;;;;;;5071875;28;20179;-65
2023/07/30 03:12:14;;;;;;;1.83;1.07;;;25.70;41.60;;;;;;5072505;28;20213;-66
2023/07/30 03:14:42;;;;;;;1.50;0.90;;;25.60;40.40;;;;;;5069650;28;20560;-68
2023/07/30 03:17:09;;;;;;;1.87;1.23;;;25.60;41.00;;;;;;5072372;28;20641;-66
2023/07/30 03:19:36;;;;;;;2.93;1.03;;;25.30;40.90;;;;;;5086043;28;20520;-70
2023/07/30 03:22:04;;;;;;;1.60;1.20;;;25.60;40.80;;;;;;5072199;28;20278;-65
2023/07/30 03:24:31;;;;;;;2.37;1.10;;;26.00;40.50;;;;;;5071935;28;20187;-66
2023/07/30 03:26:58;;;;;;;3.67;1.00;;;26.30;40.00;;;;;;5072385;28;20184;-67
2023/07/30 03:29:25;;;;;;;1.67;1.20;;;26.70;39.30;;;;;;5072161;28;20191;-65
2023/07/30 03:31:53;;;;;;;1.90;1.20;;;26.90;38.50;;;;;;5071850;28;20231;-66
2023/07/30 03:34:20;;;;;;;2.47;1.20;;;26.90;38.60;;;;;;5071998;28;20547;-65
2023/07/30 03:36:47;;;;;;;2.53;0.93;;;26.80;38.30;;;;;;5069458;28;20210;-64
2023/07/30 03:39:15;;;;;;;1.87;1.30;;;26.90;38.70;;;;;;5068267;28;20709;-66
2023/07/30 03:41:43;;;;;;;1.67;1.07;;;27.00;38.00;;;;;;5071804;28;20189;-64
2023/07/30 03:44:10;;;;;;;2.40;1.20;;;26.90;38.00;;;;;;5071636;28;20266;-67
2023/07/30 03:46:37;;;;;;;2.20;1.07;;;27.00;37.80;;;;;;5072326;28;20171;-65
2023/07/30 03:49:05;;;;;;;1.37;1.00;;;27.20;38.10;;;;;;5070749;28;20726;-65
2023/07/30 03:51:33;;;;;;;1.97;1.20;;;27.30;38.10;;;;;;5070635;28;20189;-67
2023/07/30 03:54:00;;;;;;;0.97;0.90;;;27.30;37.60;;;;;;5069532;28;20580;-64
2023/07/30 03:56:27;;;;;;;3.87;1.37;;;27.30;37.80;;;;;;5071794;28;20648;-65
2023/07/30 03:58:55;;;;;;;3.13;1.23;;;27.30;37.80;;;;;;5071489;28;20179;-65
2023/07/30 04:01:22;;;;;;;1.43;1.10;;;27.30;37.80;;;;;;5071804;28;20183;-65
2023/07/30 04:03:50;;;;;;;2.00;1.10;;;27.20;37.60;;;;;;5071206;28;20175;-65
2023/07/30 04:06:17;;;;;;;1.30;0.90;;;27.60;37.60;;;;;;5072044;28;20694;-65
2023/07/30 04:08:44;;;;;;;1.10;1.00;;;27.60;35.10;;;;;;5069271;28;20645;-65
2023/07/30 04:11:11;;;;;;;3.73;0.90;;;27.40;35.40;;;;;;5069146;28;20639;-68
2023/07/30 04:13:40;;;;;;;4.03;1.00;;;27.30;34.80;;;;;;5071289;28;20179;-65
2023/07/30 04:16:08;;;;;;;2.97;0.90;;;27.60;34.40;;;;;;5068984;28;20276;-64
2023/07/30 04:18:35;;;;;;;2.13;1.30;;;27.80;33.80;;;;;;5071077;28;20175;-65
2023/07/30 04:21:02;;;;;;;1.57;1.20;;;27.60;33.30;;;;;;5071439;28;20577;-64
2023/07/30 04:23:30;;;;;;;2.87;1.03;;;27.30;33.50;;;;;;5071219;28;20179;-65
2023/07/30 04:25:57;;;;;;;1.67;1.10;;;27.30;33.20;;;;;;5070878;28;20202;-65
2023/07/30 04:28:24;;;;;;;2.20;0.93;;;27.50;33.30;;;;;;5070517;28;20183;-65
2023/07/30 04:30:51;;;;;;;1.20;1.00;;;28.20;32.40;;;;;;5071067;28;20187;-64
2023/07/30 04:33:19;;;;;;;2.73;1.13;;;27.90;31.90;;;;;;5071665;28;20679;-65
2023/07/30 04:35:46;;;;;;;1.53;0.93;;;27.50;32.60;;;;;;5071040;28;20226;-65
2023/07/30 04:38:13;;;;;;;1.30;1.00;;;27.40;33.40;;;;;;5071370;28;20669;-65
2023/07/30 04:40:41;;;;;;;2.23;1.30;;;27.60;33.30;;;;;;5071591;28;20578;-65
2023/07/30 04:43:08;;;;;;;3.87;1.00;;;28.30;32.20;;;;;;5071243;28;20194;-65
2023/07/30 04:45:35;;;;;;;1.10;0.80;;;28.70;31.40;;;;;;5071259;28;20194;-65
2023/07/30 04:48:03;;;;;;;1.57;1.17;;;28.00;32.00;;;;;;5070831;28;20213;-65
2023/07/30 04:50:30;;;;;;;2.00;0.90;;;27.80;32.60;;;;;;5066163;28;20175;-64
2023/07/30 04:52:57;;;;;;;1.20;1.00;;;27.90;32.70;;;;;;5070891;28;20214;-64
2023/07/30 04:55:25;;;;;;;2.10;1.03;;;27.90;32.80;;;;;;5071188;28;20222;-65
2023/07/30 04:57:52;;;;;;;1.87;1.10;;;27.90;32.20;;;;;;5070939;28;20187;-65
2023/07/30 05:00:19;;;;;;;2.03;0.80;;;27.70;32.80;;;;;;5072495;28;20183;-64
2023/07/30 05:02:47;;;;;;;1.37;0.90;;;27.70;32.70;;;;;;5072141;28;20198;-65
2023/07/30 05:05:14;;;;;;;2.03;1.00;;;27.80;32.40;;;;;;5074944;28;20241;-65
2023/07/30 05:07:41;;;;;;;1.83;0.97;;;28.20;31.90;;;;;;5088557;28;20541;-65
2023/07/30 05:10:10;;;;;;;2.73;0.90;;;28.70;31.50;;;;;;5073725;28;20214;-64
2023/07/30 05:12:38;;;;;;;3.50;1.03;;;28.60;31.30;;;;;;5074640;28;20186;-64
2023/07/30 05:15:06;;;;;;;1.80;1.30;;;28.90;31.00;;;;;;5075115;28;20293;-64
2023/07/30 05:17:34;;;;;;;1.70;1.00;;;28.50;31.60;;;;;;5074207;28;20573;-64
2023/07/30 05:20:01;;;;;;;1.53;1.00;;;28.60;31.30;;;;;;5073443;28;20190;-65
2023/07/30 05:22:28;;;;;;;3.90;1.10;;;28.20;32.00;;;;;;5072051;28;20648;-65
2023/07/30 05:24:56;;;;;;;1.67;0.90;;;28.40;31.60;;;;;;5074675;28;20183;-64
2023/07/30 05:27:23;;;;;;;3.17;1.07;;;28.80;31.10;;;;;;5070796;28;20187;-65
2023/07/30 05:29:51;;;;;;;1.10;0.90;;;29.20;30.70;;;;;;5069319;28;20183;-64
2023/07/30 05:32:18;;;;;;;4.10;1.10;;;29.30;30.30;;;;;;5073191;28;20223;-65
2023/07/30 05:34:45;;;;;;;2.27;0.93;;;29.10;30.70;;;;;;5069210;28;20207;-64
2023/07/30 05:37:13;;;;;;;1.70;0.97;;;28.80;30.80;;;;;;5074299;28;20258;-64
2023/07/30 05:39:40;;;;;;;1.67;1.03;;;29.20;30.00;;;;;;5071458;28;20179;-65
2023/07/30 05:42:07;;;;;;;1.60;1.20;;;29.50;29.90;;;;;;5071814;28;20237;-64
2023/07/30 05:44:35;;;;;;;2.37;1.60;;;29.10;30.40;;;;;;5072112;28;20179;-64
2023/07/30 05:47:02;;;;;;;1.27;1.17;;;29.20;30.30;;;;;;5074085;28;20237;-66
2023/07/30 05:49:30;;;;;;;1.27;1.10;;;29.80;28.80;;;;;;5073256;28;20259;-65
2023/07/30 05:51:57;;;;;;;3.37;0.70;;;29.40;28.50;;;;;;5073764;28;20637;-65
2023/07/30 05:54:25;;;;;;;1.60;1.00;;;29.20;28.40;;;;;;5073526;28;20268;-64
2023/07/30 05:56:53;;;;;;;1.53;1.13;;;28.70;28.20;;;;;;5076593;28;20262;-65
2023/07/30 05:59:21;;;;;;;1.83;1.00;;;28.70;28.00;;;;;;5074556;28;20262;-64
2023/07/30 06:01:48;;;;;;;1.60;1.10;;;28.20;28.40;;;;;;5073617;28;20239;-64
2023/07/30 06:04:15;;;;;;;2.07;0.87;;;27.40;29.30;;;;;;5071899;28;20182;-64
2023/07/30 06:06:43;;;;;;;1.83;0.90;;;27.60;29.40;;;;;;5071675;28;20183;-64
2023/07/30 06:09:11;;;;;;;1.57;1.00;;;27.50;29.40;;;;;;5073090;28;20183;-65
2023/07/30 06:11:38;;;;;;;1.63;1.23;;;27.70;29.00;;;;;;5073301;28;20190;-64
2023/07/30 06:14:06;;;;;;;1.93;0.90;;;27.80;28.80;;;;;;5073726;28;20615;-64
2023/07/30 06:16:33;;;;;;;2.77;1.20;;;26.60;30.20;;;;;;5073648;28;20205;-64
2023/07/30 06:19:00;;;;;;;1.73;1.10;;;26.10;31.00;;;;;;5073024;28;20187;-65
2023/07/30 06:21:27;;;;;;;1.77;1.23;;;25.70;31.70;;;;;;5069926;28;20549;-65
2023/07/30 06:23:55;;;;;;;1.47;1.20;;;25.50;31.80;;;;;;5073392;28;20186;-64
2023/07/30 06:26:22;;;;;;;1.30;1.20;;;25.20;32.10;;;;;;5079476;28;20203;-65
2023/07/30 06:28:49;;;;;;;2.60;1.20;;;25.00;32.30;;;;;;5072672;28;20248;-65
2023/07/30 06:31:16;;;;;;;6.90;1.13;;;24.80;32.60;;;;;;5071018;28;20705;-64
2023/07/30 06:33:44;;;;;;;3.63;1.50;;;24.70;32.60;;;;;;5070639;28;20199;-65
2023/07/30 06:36:11;;;;;;;3.70;1.17;;;24.70;32.20;;;;;;5070103;28;20612;-64
2023/07/30 06:38:39;;;;;;;1.07;0.90;;;24.50;32.60;;;;;;5069340;28;20171;-64
2023/07/30 06:41:06;;;;;;;1.40;1.13;;;24.40;32.80;;;;;;5071411;28;20186;-65
2023/07/30 06:43:33;;;;;;;1.83;1.00;;;24.30;33.10;;;;;;5070170;28;20179;-65
2023/07/30 06:46:01;;;;;;;2.33;1.00;;;24.30;33.30;;;;;;5070006;28;20198;-65
2023/07/30 06:48:28;;;;;;;1.43;1.10;;;24.20;33.60;;;;;;5071847;28;20171;-64
2023/07/30 06:50:55;;;;;;;1.60;1.03;;;24.20;33.80;;;;;;5064969;28;20293;-64
2023/07/30 06:53:23;;;;;;;1.73;1.00;;;24.00;33.90;;;;;;5071993;28;20184;-64
2023/07/30 06:55:50;;;;;;;2.43;1.20;;;23.90;34.10;;;;;;5068476;28;20607;-64
2023/07/30 06:58:19;;;;;;;1.43;1.00;;;23.80;34.40;;;;;;5067830;28;20175;-65
2023/07/30 07:00:46;;;;;;;1.67;1.20;;;23.70;34.50;;;;;;5083798;28;20266;-64
2023/07/30 07:03:13;;;;;;;2.60;1.30;;;23.60;34.80;;;;;;5067897;28;20167;-64
2023/07/30 07:05:41;;;;;;;3.20;1.37;;;23.40;35.80;;;;;;5070641;28;20183;-64
2023/07/30 07:08:08;;;;;;;2.07;1.30;;;23.30;36.20;;;;;;5072634;28;20211;-66
2023/07/30 07:10:35;;;;;;;3.70;1.40;;;23.30;36.80;;;;;;5073056;28;20176;-66
2023/07/30 07:13:02;;;;;;;2.30;1.30;;;23.10;37.40;;;;;;5070947;28;20256;-65
2023/07/30 07:15:30;;;;;;;2.00;1.43;;;22.90;38.00;;;;;;5070701;28;20211;-65
2023/07/30 07:17:57;;;;;;;2.50;1.60;;;22.80;38.70;;;;;;5070242;28;20186;-65
2023/07/30 07:20:24;;;;;;;4.37;1.80;;;22.60;39.40;;;;;;5069288;28;20261;-64
2023/07/30 07:22:52;;;;;;;1.83;1.50;;;22.40;39.80;;;;;;5069951;28;20518;-64
2023/07/30 07:25:20;;;;;;;2.13;1.60;;;22.40;39.10;;;;;;5072138;28;20179;-65
2023/07/30 07:27:48;;;;;;;2.63;1.40;;;22.50;39.10;;;;;;5069244;28;20188;-64
2023/07/30 07:30:15;;;;;;;4.03;1.87;;;22.30;39.30;;;;;;5069495;28;20175;-65
2023/07/30 07:32:43;;;;;;;3.30;1.93;;;22.30;39.20;;;;;;5069916;28;20622;-64
2023/07/30 07:35:10;;;;;;;6.57;1.90;;;22.20;39.40;;;;;;5086585;28;20206;-65
2023/07/30 07:37:38;;;;;;;4.77;2.20;;;22.10;39.50;;;;;;5069474;28;20210;-65
2023/07/30 07:40:06;;;;;;;4.30;2.30;;;21.90;40.50;;;;;;5071701;28;20179;-65
2023/07/30 07:42:33;;;;;;;3.20;2.13;;;21.80;41.00;;;;;;5071801;28;20187;-65
2023/07/30 07:45:00;;;;;;;3.83;2.67;;;21.70;41.40;;;;;;5071454;28;20590;-67
2023/07/30 07:47:27;;;;;;;4.97;2.17;;;21.50;41.60;;;;;;5071767;28;20233;-65
2023/07/30 07:49:55;;;;;;;4.00;3.03;;;21.40;42.00;;;;;;5071511;28;20174;-66
2023/07/30 07:52:22;;;;;;;3.47;2.83;;;21.30;42.70;;;;;;5069021;28;20273;-65
2023/07/30 07:54:52;;;;;;;5.23;3.10;;;21.10;43.00;;;;;;5069016;28;20250;-64
2023/07/30 07:57:19;;;;;;;8.53;6.10;;;21.00;43.70;;;;;;5063979;28;20285;-65
2023/07/30 07:59:47;;;;;;;10.37;7.00;;;20.90;43.60;;;;;;5066962;28;20190;-64
2023/07/30 08:02:14;;;;;;;7.73;4.27;;;20.80;42.90;;;;;;5070714;28;20567;-65
2023/07/30 08:04:42;;;;;;;5.40;3.90;;;20.90;43.30;;;;;;5070174;28;20198;-64
2023/07/30 08:07:09;;;;;;;5.77;4.00;;;20.80;43.30;;;;;;5068653;28;20179;-64
2023/07/30 08:09:36;;;;;;;7.23;4.17;;;20.80;43.40;;;;;;5069507;28;20191;-65
2023/07/30 08:12:04;;;;;;;4.23;3.10;;;20.80;43.50;;;;;;5071428;28;20248;-65
2023/07/30 08:14:31;;;;;;;4.00;2.83;;;20.70;43.40;;;;;;5068456;28;20199;-69
2023/07/30 08:16:59;;;;;;;4.97;3.53;;;20.60;43.50;;;;;;5070331;28;20179;-64
2023/07/30 08:19:27;;;;;;;5.80;2.87;;;20.50;43.90;;;;;;5068706;28;20617;-65
2023/07/30 08:21:56;;;;;;;5.53;3.13;;;20.50;43.80;;;;;;5068352;28;20191;-64
2023/07/30 08:24:24;;;;;;;6.80;2.77;;;20.30;44.40;;;;;;5069180;28;20222;-64
2023/07/30 08:26:51;;;;;;;6.77;3.10;;;20.30;44.70;;;;;;5071114;28;20668;-64
2023/07/30 08:29:18;;;;;;;6.60;3.30;;;20.20;45.20;;;;;;5069702;28;20185;-64
2023/07/30 08:31:45;;;;;;;7.53;3.10;;;20.00;46.10;;;;;;5065431;28;20239;-64
2023/07/30 08:34:15;;;;;;;6.23;3.73;;;19.90;46.40;;;;;;5082965;28;20308;-64
2023/07/30 08:36:42;;;;;;;5.73;3.40;;;19.80;47.20;;;;;;5074792;28;20195;-64
2023/07/30 08:39:09;;;;;;;6.07;3.60;;;19.60;47.70;;;;;;5072017;28;20179;-64
2023/07/30 08:41:37;;;;;;;6.43;3.60;;;19.50;48.10;;;;;;5072350;28;20286;-64
2023/07/30 08:44:05;;;;;;;10.13;3.80;;;19.40;48.10;;;;;;5075133;28;20261;-64
2023/07/30 08:46:32;;;;;;;8.10;4.10;;;19.30;48.30;;;;;;5068679;28;20183;-64
2023/07/30 08:49:00;;;;;;;6.97;4.83;;;19.30;48.90;;;;;;5072101;28;20677;-64
2023/07/30 08:51:28;;;;;;;10.80;5.50;;;19.20;49.70;;;;;;5070044;28;20175;-64
2023/07/30 08:53:58;;;;;;;11.70;5.43;;;19.10;49.90;;;;;;5074216;28;20175;-65
2023/07/30 08:56:26;;;;;;;8.80;5.93;;;19.00;50.70;;;;;;5069695;28;20669;-64
2023/07/30 08:58:57;;;;;;;11.50;6.87;;;19.00;50.40;;;;;;5074495;28;20191;-65
2023/07/30 09:01:33;;;;;;;11.30;6.47;;;19.10;49.60;;;;;;5074802;28;20188;-65
2023/07/30 09:04:02;;;;;;;10.23;6.47;;;19.10;49.40;;;;;;5075040;28;20688;-65
2023/07/30 09:06:29;;;;;;;14.13;7.00;;;19.20;48.70;;;;;;5074344;28;20268;-64
2023/07/30 09:08:56;;;;;;;10.93;5.67;;;19.20;48.40;;;;;;5074235;28;20190;-64
2023/07/30 09:11:27;;;;;;;6.33;4.17;;;19.20;48.40;;;;;;5076641;28;20183;-64
2023/07/30 09:13:55;;;;;;;7.37;4.30;;;19.20;47.60;;;;;;5074129;28;20248;-65
2023/07/30 09:16:26;;;;;;;6.47;3.70;;;19.20;48.10;;;;;;5069116;28;20230;-65
2023/07/30 09:18:54;;;;;;;5.13;3.60;;;19.20;47.70;;;;;;5074102;28;20195;-65
2023/07/30 09:21:34;;;;;;;6.00;3.73;;;19.20;47.90;;;;;;5074870;28;20202;-66
2023/07/30 09:24:07;;;;;;;9.40;3.90;;;19.10;48.10;;;;;;5069342;28;20175;-64
2023/07/30 09:26:45;;;;;;;5.17;3.30;;;19.20;48.00;;;;;;5074200;28;20205;-66
2023/07/30 09:29:13;;;;;;;5.67;3.37;;;19.20;47.20;;;;;;5073491;28;20274;-65
2023/07/30 09:31:53;;;;;;;8.47;3.67;;;19.30;46.90;;;;;;5073944;28;20231;-65
2023/07/30 09:34:22;;;;;;;7.03;3.90;;;19.30;46.90;;;;;;5075468;28;20191;-65
2023/07/30 09:36:53;;;;;;;5.97;3.70;;;19.30;47.20;;;;;;5077143;28;20680;-66
2023/07/30 09:39:22;;;;;;;4.60;3.33;;;19.30;46.90;;;;;;5075180;28;20256;-65
2023/07/30 09:48:34;;;;;;;6.73;3.90;;;19.20;47.30;;;;;;5078717;28;20220;-68
2023/07/30 09:51:03;;;;;;;7.37;3.30;;;19.20;47.40;;;;;;5072754;28;20198;-66
2023/07/30 09:53:34;;;;;;;6.73;3.10;;;19.10;47.60;;;;;;5069244;28;20203;-66
2023/07/30 09:56:08;;;;;;;5.07;3.57;;;19.20;47.30;;;;;;5088959;28;20215;-65
2023/07/30 09:58:37;;;;;;;3.60;2.87;;;19.20;46.80;;;;;;5071419;28;20281;-65
2023/07/30 10:01:05;;;;;;;5.07;3.10;;;19.20;47.10;;;;;;5067501;28;20191;-66
2023/07/30 10:03:35;;;;;;;5.77;3.00;;;19.20;47.10;;;;;;5074903;28;20262;-64
2023/07/30 10:06:08;;;;;;;5.03;3.27;;;19.20;46.90;;;;;;5072410;28;20193;-65
2023/07/30 10:08:41;;;;;;;6.30;3.50;;;19.20;47.10;;;;;;5072582;28;20182;-64
2023/07/30 10:11:10;;;;;;;5.23;2.90;;;19.10;47.40;;;;;;5071635;28;20186;-64
2023/07/30 10:13:41;;;;;;;3.57;2.50;;;19.00;47.70;;;;;;5075418;28;20176;-63
2023/07/30 10:16:12;;;;;;;4.37;2.73;;;18.90;48.00;;;;;;5068466;28;20215;-64
2023/07/30 10:18:43;;;;;;;4.60;2.73;;;18.90;48.30;;;;;;5076079;28;20603;-64
2023/07/30 10:21:22;;;;;;;5.07;2.70;;;18.90;48.70;;;;;;5065187;28;20194;-64
2023/07/30 10:24:03;;;;;;;9.30;2.63;;;18.80;49.20;;;;;;5069229;28;20202;-64
2023/07/30 10:26:33;;;;;;;4.33;2.30;;;18.90;49.30;;;;;;5067404;28;20206;-65
2023/07/30 10:29:20;;;;;;;3.03;2.00;;;18.80;49.30;;;;;;5065849;28;20207;-64
2023/07/30 10:31:59;;;;;;;4.97;2.03;;;18.90;49.20;;;;;;5067176;28;20234;-64
2023/07/30 10:34:46;;;;;;;3.17;2.03;;;18.80;49.30;;;;;;5064695;28;20183;-64
2023/07/30 10:37:24;;;;;;;3.83;2.00;;;18.80;49.60;;;;;;5067381;28;20194;-64
2023/07/30 10:39:51;;;;;;;2.77;1.83;;;18.70;49.90;;;;;;5065550;28;20188;-65
2023/07/30 10:42:19;;;;;;;3.50;2.23;;;18.60;50.20;;;;;;5069505;28;20180;-64
2023/07/30 10:44:49;;;;;;;4.67;2.00;;;18.60;50.30;;;;;;5066793;28;20244;-64
2023/07/30 10:47:16;;;;;;;3.77;2.20;;;18.50;50.50;;;;;;5068954;28;20384;-65
2023/07/30 10:49:44;;;;;;;3.67;2.07;;;18.40;51.00;;;;;;5068321;28;20195;-65
2023/07/30 10:52:11;;;;;;;2.60;1.93;;;18.30;51.50;;;;;;5065418;28;20198;-64
2023/07/30 10:54:39;;;;;;;5.47;2.40;;;18.20;51.80;;;;;;5072418;28;20740;-64
2023/07/30 10:57:07;;;;;;;2.93;2.17;;;18.20;51.90;;;;;;5066994;28;20188;-64
2023/07/30 10:59:38;;;;;;;4.30;2.50;;;18.10;52.80;;;;;;5066153;28;20188;-64
2023/07/30 11:02:08;;;;;;;4.57;2.57;;;18.00;52.70;;;;;;5067454;28;20630;-66
2023/07/30 11:04:36;;;;;;;4.63;2.40;;;17.90;53.40;;;;;;5063360;28;20622;-65
2023/07/30 11:07:04;;;;;;;3.40;2.20;;;17.80;53.80;;;;;;5068667;28;20190;-65
2023/07/30 11:09:31;;;;;;;3.93;2.20;;;17.60;54.40;;;;;;5066283;28;20549;-65
2023/07/30 11:11:58;;;;;;;4.67;2.33;;;17.50;55.00;;;;;;5068225;28;20190;-65
2023/07/30 11:14:27;;;;;;;5.30;2.70;;;17.30;55.30;;;;;;5069492;28;20243;-64
2023/07/30 11:16:59;;;;;;;6.20;3.40;;;17.30;56.20;;;;;;5066241;28;20199;-64
2023/07/30 11:19:30;;;;;;;7.60;2.03;;;17.20;56.10;;;;;;5066901;28;20171;-64
2023/07/30 11:21:58;;;;;;;3.70;2.30;;;17.20;55.90;;;;;;5067957;28;20702;-65
2023/07/30 11:24:36;;;;;;;4.83;2.83;;;17.20;55.70;;;;;;5074876;28;20189;-65
2023/07/30 11:27:03;;;;;;;3.23;2.30;;;17.20;56.20;;;;;;5074526;28;20588;-68
2023/07/30 11:29:31;;;;;;;3.87;2.63;;;17.10;56.70;;;;;;5070816;28;20190;-65
2023/07/30 11:32:02;;;;;;;3.37;2.50;;;17.00;56.30;;;;;;5071749;28;20215;-68
2023/07/30 11:34:30;;;;;;;9.07;2.30;;;17.00;57.40;;;;;;5070071;28;20250;-64
2023/07/30 11:37:00;;;;;;;5.03;2.50;;;16.80;57.10;;;;;;5070479;28;20305;-64
2023/07/30 11:39:28;;;;;;;6.97;2.77;;;16.70;57.90;;;;;;5067435;28;20542;-64
2023/07/30 11:41:55;;;;;;;2.90;2.20;;;16.70;58.80;;;;;;5071569;28;20214;-64
2023/07/30 11:44:37;;;;;;;6.77;2.47;;;16.60;59.60;;;;;;5070511;28;20190;-64
2023/07/30 11:47:06;;;;;;;4.23;2.10;;;16.50;59.30;;;;;;5071264;28;20196;-64
2023/07/30 11:49:33;;;;;;;2.70;2.00;;;16.50;58.60;;;;;;5073746;28;20186;-66
2023/07/30 11:52:11;;;;;;;4.10;2.23;;;16.50;58.50;;;;;;5069723;28;20584;-65
2023/07/30 11:54:38;;;;;;;2.23;2.03;;;16.50;58.00;;;;;;5071914;28;20278;-64
2023/07/30 11:57:06;;;;;;;2.83;2.00;;;16.50;57.70;;;;;;5071573;28;20659;-64
2023/07/30 11:59:33;;;;;;;2.77;1.87;;;16.50;57.60;;;;;;5068443;28;20224;-66
2023/07/30 12:02:01;;;;;;;7.83;2.60;;;16.50;58.00;;;;;;5074775;28;20208;-66
2023/07/30 12:04:48;;;;;;;5.53;2.30;;;16.50;58.60;;;;;;5070551;28;20276;-65
2023/07/30 12:07:24;;;;;;;2.87;2.00;;;16.40;59.00;;;;;;5070000;28;20185;-65
2023/07/30 12:09:51;;;;;;;3.37;1.90;;;16.30;59.30;;;;;;5072526;28;20179;-65
2023/07/30 12:12:19;;;;;;;4.27;2.27;;;16.30;59.60;;;;;;5072084;28;20179;-65
2023/07/30 12:14:49;;;;;;;4.90;2.00;;;16.20;59.70;;;;;;5071179;28;20268;-65
2023/07/30 12:17:16;;;;;;;4.03;1.90;;;16.20;59.60;;;;;;5071657;28;20707;-65
2023/07/30 12:19:44;;;;;;;4.30;2.10;;;16.10;59.60;;;;;;5071642;28;20182;-66
2023/07/30 12:22:11;;;;;;;2.47;2.07;;;16.20;59.40;;;;;;5086835;28;20177;-67
2023/07/30 12:24:38;;;;;;;4.43;2.17;;;16.10;59.80;;;;;;5070935;28;20629;-66
2023/07/30 12:27:06;;;;;;;3.47;2.07;;;16.10;60.40;;;;;;5073549;28;20179;-65
2023/07/30 12:29:33;;;;;;;4.63;1.83;;;16.00;60.70;;;;;;5073450;28;20187;-65
2023/07/30 12:32:01;;;;;;;3.03;2.00;;;15.90;61.30;;;;;;5070765;28;20725;-65
2023/07/30 12:34:28;;;;;;;3.73;1.90;;;15.80;61.30;;;;;;5069221;28;20175;-65
2023/07/30 12:36:56;;;;;;;4.87;2.40;;;15.80;61.70;;;;;;5063692;28;20667;-65
2023/07/30 12:39:23;;;;;;;2.70;1.83;;;15.70;61.50;;;;;;5071589;28;20287;-65
2023/07/30 12:41:50;;;;;;;4.13;2.37;;;15.70;61.50;;;;;;5065168;28;20179;-65
2023/07/30 12:44:18;;;;;;;3.33;2.00;;;15.60;61.10;;;;;;5072674;28;20280;-65
2023/07/30 12:46:45;;;;;;;4.30;1.90;;;15.70;61.30;;;;;;5070958;28;20187;-65
2023/07/30 12:49:12;;;;;;;4.90;1.70;;;15.60;61.20;;;;;;5069875;28;20172;-65
2023/07/30 12:51:40;;;;;;;5.73;2.00;;;15.60;61.40;;;;;;5073540;28;20182;-65
2023/07/30 12:54:07;;;;;;;5.03;2.33;;;15.60;62.00;;;;;;5065440;28;20178;-65
2023/07/30 12:56:34;;;;;;;4.97;2.10;;;15.50;61.90;;;;;;5068709;28;20270;-65
2023/07/30 12:59:01;;;;;;;5.40;2.20;;;15.50;62.60;;;;;;5069881;28;20187;-65